Terminal Aerodrome Forecast
Issued by NWS Bismarck, ND

Home | Current Version | Previous Version | Graphics & Text | Print | Product List | Glossary On
Versions: 1 2 3 4 5 6 7 8 9 10 11 12 13 14 15 16 17 18 19 20 21 22
000
FTUS43 KBIS 281739
TAFISN
TAF
KISN 281739Z 2818/2918 33014KT P6SM SCT025 BKN060
     FM281900 35015G20KT P6SM VCTS BKN050CB
      TEMPO 2820/2824 6SM -TSRA
     FM290200 01011KT P6SM SCT040
     FM290400 02010KT P6SM SCT020=

USA.gov is the U.S. government's official web portal to all federal, state and local government web resources and services.